Time;durP1;ratioP1;P1;durP2;ratioP2;P2;SDS_P1;SDS_P2;PMS_P1;PMS_P2;Temp;Humidity;BMP_temperature;BMP_pressure;BME280_temperature;BME280_humidity;BME280_pressure;Samples;Min_cycle;Max_cycle;Signal;HPM_P1;HPM_P2
2024/04/25 00:01:14;;;;;;;;;;;;;;;;;;5469756;26;19929;-57
2024/04/25 00:03:40;;;;;;;;;;;;;;;;;;5472990;26;20150;-60
2024/04/25 00:06:06;;;;;;;;;;;;;;;;;;5473684;26;19938;-60
2024/04/25 00:08:32;;;;;;;;;;;;;;;;;;5476212;26;19935;-59
2024/04/25 00:10:58;;;;;;;;;;;;;;;;;;5469391;26;19928;-57
2024/04/25 00:13:27;;;;;;;;;;;;;;;;;;5480477;26;19927;-57
2024/04/25 00:15:53;;;;;;;;;;;;;;;;;;5476339;26;19933;-56
2024/04/25 00:18:19;;;;;;;;;;;;;;;;;;5473170;26;19928;-60
2024/04/25 00:20:45;;;;;;;;;;;;;;;;;;5478639;26;19928;-60
2024/04/25 00:23:11;;;;;;;;;;;;;;;;;;5479689;26;19940;-59
2024/04/25 00:25:36;;;;;;;;;;;;;;;;;;5472194;26;20363;-59
2024/04/25 00:28:02;;;;;;;;;;;;;;;;;;5479172;26;19972;-58
2024/04/25 00:30:28;;;;;;;;;;;;;;;;;;5480159;26;19928;-58
2024/04/25 00:32:54;;;;;;;;;;;;;;;;;;5471154;26;20568;-57
2024/04/25 00:35:20;;;;;;;;;;;;;;;;;;5469168;26;20256;-59
2024/04/25 00:37:46;;;;;;;;;;;;;;;;;;5468022;26;19997;-58
2024/04/25 00:40:12;;;;;;;;;;;;;;;;;;5472592;26;19948;-57
2024/04/25 00:42:37;;;;;;;;;;;;;;;;;;5471246;26;19936;-55
2024/04/25 00:45:03;;;;;;;;;;;;;;;;;;5479343;26;19936;-58
2024/04/25 00:47:29;;;;;;;;;;;;;;;;;;5487693;26;19943;-57
2024/04/25 00:49:55;;;;;;;;;;;;;;;;;;5482641;26;19928;-58
2024/04/25 00:52:22;;;;;;;;;;;;;;;;;;5471450;26;20368;-56
2024/04/25 00:54:48;;;;;;;;;;;;;;;;;;5468190;26;20258;-59
2024/04/25 00:57:14;;;;;;;;;;;;;;;;;;5483366;26;19928;-57
2024/04/25 00:59:40;;;;;;;;;;;;;;;;;;5482924;26;20262;-57
2024/04/25 01:02:05;;;;;;;;;;;;;;;;;;5481170;26;19934;-57
2024/04/25 01:04:31;;;;;;;;;;;;;;;;;;5474338;26;19928;-58
2024/04/25 01:06:57;;;;;;;;;;;;;;;;;;5476950;26;19927;-60
2024/04/25 01:09:23;;;;;;;;;;;;;;;;;;5470538;26;19928;-59
2024/04/25 01:11:49;;;;;;;;;;;;;;;;;;5480509;26;20003;-58
2024/04/25 01:14:15;;;;;;;;;;;;;;;;;;5475335;26;19935;-60
2024/04/25 01:16:41;;;;;;;;;;;;;;;;;;5479041;26;19928;-59
2024/04/25 01:19:06;;;;;;;;;;;;;;;;;;5475596;26;20366;-57
2024/04/25 01:21:34;;;;;;;;;;;;;;;;;;5472826;26;19929;-57
2024/04/25 01:23:59;;;;;;;;;;;;;;;;;;5464972;26;19936;-57
2024/04/25 01:26:25;;;;;;;;;;;;;;;;;;5471853;26;19962;-60
2024/04/25 01:28:51;;;;;;;;;;;;;;;;;;5478420;26;20376;-59
2024/04/25 01:31:17;;;;;;;;;;;;;;;;;;5476572;26;19928;-55
2024/04/25 01:33:43;;;;;;;;;;;;;;;;;;5468623;26;19935;-57
2024/04/25 01:36:09;;;;;;;;;;;;;;;;;;5475116;26;19935;-59
2024/04/25 01:38:35;;;;;;;;;;;;;;;;;;5447460;26;19944;-57
2024/04/25 01:41:01;;;;;;;;;;;;;;;;;;5468577;26;19936;-56
2024/04/25 01:43:26;;;;;;;;;;;;;;;;;;5474316;26;20266;-59
2024/04/25 01:45:52;;;;;;;;;;;;;;;;;;5468564;26;19993;-60
2024/04/25 01:48:18;;;;;;;;;;;;;;;;;;5472659;26;19928;-60
2024/04/25 01:50:44;;;;;;;;;;;;;;;;;;5476886;26;20330;-59
2024/04/25 01:53:10;;;;;;;;;;;;;;;;;;5471423;26;19939;-59
2024/04/25 01:55:36;;;;;;;;;;;;;;;;;;5483498;26;19928;-58
2024/04/25 01:58:02;;;;;;;;;;;;;;;;;;5469237;26;19941;-59
2024/04/25 02:00:28;;;;;;;;;;;;;;;;;;5473284;26;19932;-58
2024/04/25 02:02:53;;;;;;;;;;;;;;;;;;5473297;26;20013;-56
2024/04/25 02:05:19;;;;;;;;;;;;;;;;;;5475955;26;19935;-58
2024/04/25 02:07:46;;;;;;;;;;;;;;;;;;5479154;26;20000;-56
2024/04/25 02:10:12;;;;;;;;;;;;;;;;;;5480253;26;19928;-56
2024/04/25 02:12:38;;;;;;;;;;;;;;;;;;5462067;26;19935;-56
2024/04/25 02:15:04;;;;;;;;;;;;;;;;;;5483077;26;19928;-56
2024/04/25 02:17:29;;;;;;;;;;;;;;;;;;5478352;26;20370;-56
2024/04/25 02:19:55;;;;;;;;;;;;;;;;;;5475769;26;19928;-56
2024/04/25 02:27:32;;;;;;;;;;;;;;;;;;5473086;26;19924;-56
2024/04/25 02:29:58;;;;;;;;;;;;;;;;;;5472707;26;20259;-57
2024/04/25 02:32:24;;;;;;;;;;;;;;;;;;5463429;26;19932;-57
2024/04/25 02:34:49;;;;;;;;;;;;;;;;;;5471023;26;19997;-56
2024/04/25 02:37:15;;;;;;;;;;;;;;;;;;5470662;26;19935;-57
2024/04/25 02:39:41;;;;;;;;;;;;;;;;;;5477655;26;20726;-57
2024/04/25 02:42:07;;;;;;;;;;;;;;;;;;5472747;26;19928;-55
2024/04/25 02:44:33;;;;;;;;;;;;;;;;;;5466048;26;19932;-54
2024/04/25 02:46:59;;;;;;;;;;;;;;;;;;5458911;26;19961;-57
2024/04/25 02:49:27;;;;;;;;;;;;;;;;;;5469580;26;19996;-59
2024/04/25 02:51:52;;;;;;;;;;;;;;;;;;5471184;26;19929;-56
2024/04/25 02:54:18;;;;;;;;;;;;;;;;;;5470655;26;19981;-57
2024/04/25 02:56:44;;;;;;;;;;;;;;;;;;5470249;26;19953;-55
2024/04/25 02:59:10;;;;;;;;;;;;;;;;;;5470885;26;20381;-56
2024/04/25 03:01:36;;;;;;;;;;;;;;;;;;5476165;26;19928;-57
2024/04/25 03:04:02;;;;;;;;;;;;;;;;;;5473976;26;19935;-56
2024/04/25 03:06:28;;;;;;;;;;;;;;;;;;5463879;26;19928;-56
2024/04/25 03:08:54;;;;;;;;;;;;;;;;;;5479666;26;20223;-58
2024/04/25 03:11:19;;;;;;;;;;;;;;;;;;5471491;26;19943;-58
2024/04/25 03:13:45;;;;;;;;;;;;;;;;;;5463855;26;19936;-56
2024/04/25 03:16:11;;;;;;;;;;;;;;;;;;5467879;26;19928;-56
2024/04/25 03:18:37;;;;;;;;;;;;;;;;;;5456798;26;20227;-56
2024/04/25 03:21:03;;;;;;;;;;;;;;;;;;5477424;26;19996;-58
2024/04/25 03:23:29;;;;;;;;;;;;;;;;;;5480383;26;19935;-56
2024/04/25 03:25:55;;;;;;;;;;;;;;;;;;5470734;26;19928;-55
2024/04/25 03:28:21;;;;;;;;;;;;;;;;;;5466013;26;19928;-59
2024/04/25 03:30:46;;;;;;;;;;;;;;;;;;5472428;26;19927;-57
2024/04/25 03:33:12;;;;;;;;;;;;;;;;;;5473768;26;19937;-57
2024/04/25 03:35:40;;;;;;;;;;;;;;;;;;5483488;26;19928;-56
2024/04/25 03:38:05;;;;;;;;;;;;;;;;;;5481233;26;19940;-57
2024/04/25 03:40:31;;;;;;;;;;;;;;;;;;5475309;26;20290;-56
2024/04/25 03:42:57;;;;;;;;;;;;;;;;;;5470113;26;20022;-56
2024/04/25 03:45:23;;;;;;;;;;;;;;;;;;5469355;26;19935;-58
2024/04/25 03:47:49;;;;;;;;;;;;;;;;;;5472836;26;19940;-57
2024/04/25 03:50:15;;;;;;;;;;;;;;;;;;5469540;26;19928;-56
2024/04/25 03:52:41;;;;;;;;;;;;;;;;;;5468399;26;20000;-56
2024/04/25 03:55:06;;;;;;;;;;;;;;;;;;5475732;26;20001;-56
2024/04/25 03:57:32;;;;;;;;;;;;;;;;;;5475346;26;19928;-56
2024/04/25 03:59:58;;;;;;;;;;;;;;;;;;5475622;26;20283;-56
2024/04/25 04:02:24;;;;;;;;;;;;;;;;;;5481309;26;19935;-59
2024/04/25 04:04:50;;;;;;;;;;;;;;;;;;5469592;26;20011;-57
2024/04/25 04:07:16;;;;;;;;;;;;;;;;;;5472326;26;19928;-56
2024/04/25 04:09:42;;;;;;;;;;;;;;;;;;5469742;26;20274;-57
2024/04/25 04:12:08;;;;;;;;;;;;;;;;;;5476644;26;19929;-57
2024/04/25 04:14:34;;;;;;;;;;;;;;;;;;5474140;26;20377;-56
2024/04/25 04:17:00;;;;;;;;;;;;;;;;;;5469830;26;19928;-58
2024/04/25 04:19:26;;;;;;;;;;;;;;;;;;5479427;26;20289;-57
2024/04/25 04:21:51;;;;;;;;;;;;;;;;;;5460070;26;19928;-58
2024/04/25 04:24:17;;;;;;;;;;;;;;;;;;5471507;26;19935;-58
2024/04/25 04:26:43;;;;;;;;;;;;;;;;;;5474760;26;19940;-57
2024/04/25 04:29:09;;;;;;;;;;;;;;;;;;5471723;26;19935;-56
2024/04/25 04:31:35;;;;;;;;;;;;;;;;;;5474155;26;20620;-56
2024/04/25 04:34:01;;;;;;;;;;;;;;;;;;5460024;26;19956;-58
2024/04/25 04:36:32;;;;;;;;;;;;;;;;;;5479857;26;20381;-56
2024/04/25 04:38:57;;;;;;;;;;;;;;;;;;5467187;26;19928;-56
2024/04/25 04:41:23;;;;;;;;;;;;;;;;;;5463254;26;19960;-56
2024/04/25 04:43:50;;;;;;;;;;;;;;;;;;5474005;26;20358;-58
2024/04/25 04:46:16;;;;;;;;;;;;;;;;;;5468510;26;19956;-56
2024/04/25 04:48:45;;;;;;;;;;;;;;;;;;5462429;26;19932;-56
2024/04/25 04:51:11;;;;;;;;;;;;;;;;;;5473664;26;20183;-57
2024/04/25 04:53:37;;;;;;;;;;;;;;;;;;5473606;26;20000;-58
2024/04/25 04:56:03;;;;;;;;;;;;;;;;;;5466858;26;19936;-59
2024/04/25 04:58:28;;;;;;;;;;;;;;;;;;5471613;26;19928;-57
2024/04/25 05:00:54;;;;;;;;;;;;;;;;;;5473473;26;19997;-59
2024/04/25 05:03:21;;;;;;;;;;;;;;;;;;5469777;26;20265;-56
2024/04/25 05:05:47;;;;;;;;;;;;;;;;;;5467761;26;21525;-57
2024/04/25 05:08:12;;;;;;;;;;;;;;;;;;5479948;26;20382;-57
2024/04/25 05:10:38;;;;;;;;;;;;;;;;;;5474800;26;19935;-57
2024/04/25 05:13:04;;;;;;;;;;;;;;;;;;5472616;26;19936;-58
2024/04/25 05:15:30;;;;;;;;;;;;;;;;;;5474984;26;19927;-56
2024/04/25 05:17:56;;;;;;;;;;;;;;;;;;5473305;26;20017;-58
2024/04/25 05:20:22;;;;;;;;;;;;;;;;;;5464658;26;19931;-59
2024/04/25 05:22:48;;;;;;;;;;;;;;;;;;5466044;26;19940;-57
2024/04/25 05:25:14;;;;;;;;;;;;;;;;;;5466215;26;20265;-59
2024/04/25 05:27:39;;;;;;;;;;;;;;;;;;5469145;26;19993;-58
2024/04/25 05:30:05;;;;;;;;;;;;;;;;;;5462197;26;19932;-59
2024/04/25 05:32:31;;;;;;;;;;;;;;;;;;5464778;26;19928;-57
2024/04/25 05:34:57;;;;;;;;;;;;;;;;;;5466734;26;19936;-59
2024/04/25 05:37:24;;;;;;;;;;;;;;;;;;5461316;26;19928;-57
2024/04/25 05:39:49;;;;;;;;;;;;;;;;;;5471222;26;20254;-58
2024/04/25 05:42:15;;;;;;;;;;;;;;;;;;5475908;26;19928;-58
2024/04/25 05:44:46;;;;;;;;;;;;;;;;;;5480458;26;20266;-59
2024/04/25 05:47:14;;;;;;;;;;;;;;;;;;5465026;26;20015;-55
2024/04/25 05:49:40;;;;;;;;;;;;;;;;;;5482191;26;19978;-59
2024/04/25 05:52:06;;;;;;;;;;;;;;;;;;5473269;26;19932;-59
2024/04/25 05:54:32;;;;;;;;;;;;;;;;;;5465108;26;19927;-59
2024/04/25 05:56:59;;;;;;;;;;;;;;;;;;5482051;26;21198;-60
2024/04/25 05:59:25;;;;;;;;;;;;;;;;;;5480729;26;20270;-59
2024/04/25 06:01:51;;;;;;;;;;;;;;;;;;5482702;26;19939;-56
2024/04/25 06:04:17;;;;;;;;;;;;;;;;;;5470816;26;20329;-59
2024/04/25 06:06:42;;;;;;;;;;;;;;;;;;5485765;26;19935;-58
2024/04/25 06:09:08;;;;;;;;;;;;;;;;;;5485776;26;20004;-59
2024/04/25 06:11:34;;;;;;;;;;;;;;;;;;5487096;26;19928;-58
2024/04/25 06:14:00;;;;;;;;;;;;;;;;;;5484002;26;19935;-57
2024/04/25 06:16:26;;;;;;;;;;;;;;;;;;5478227;26;19935;-59
2024/04/25 06:18:52;;;;;;;;;;;;;;;;;;5465630;26;19956;-57
2024/04/25 06:21:18;;;;;;;;;;;;;;;;;;5482965;26;19928;-59
2024/04/25 06:23:44;;;;;;;;;;;;;;;;;;5479735;26;20363;-59
2024/04/25 06:26:10;;;;;;;;;;;;;;;;;;5475516;26;19939;-59
2024/04/25 06:28:35;;;;;;;;;;;;;;;;;;5484656;26;20362;-58
2024/04/25 06:31:01;;;;;;;;;;;;;;;;;;5475546;26;19932;-59
2024/04/25 06:33:27;;;;;;;;;;;;;;;;;;5486348;26;19959;-56
2024/04/25 06:35:53;;;;;;;;;;;;;;;;;;5482467;26;20286;-58
2024/04/25 06:38:19;;;;;;;;;;;;;;;;;;5478153;26;20015;-58
2024/04/25 06:40:45;;;;;;;;;;;;;;;;;;5482530;26;20009;-60
2024/04/25 06:43:11;;;;;;;;;;;;;;;;;;5481961;26;19974;-60
2024/04/25 06:45:37;;;;;;;;;;;;;;;;;;5475643;26;19928;-60
2024/04/25 06:48:04;;;;;;;;;;;;;;;;;;5471675;26;19936;-60
2024/04/25 06:50:30;;;;;;;;;;;;;;;;;;5473865;26;19935;-60
2024/04/25 06:52:56;;;;;;;;;;;;;;;;;;5466378;26;19927;-57
2024/04/25 06:55:22;;;;;;;;;;;;;;;;;;5478113;26;19934;-56
2024/04/25 06:57:48;;;;;;;;;;;;;;;;;;5472493;26;19929;-59
2024/04/25 07:00:14;;;;;;;;;;;;;;;;;;5475982;26;19947;-58
2024/04/25 07:02:39;;;;;;;;;;;;;;;;;;5484098;26;19928;-59
2024/04/25 07:05:05;;;;;;;;;;;;;;;;;;5477283;26;19956;-57
2024/04/25 07:07:32;;;;;;;;;;;;;;;;;;5472850;26;19934;-56
2024/04/25 07:09:58;;;;;;;;;;;;;;;;;;5483762;26;19936;-56
2024/04/25 07:12:24;;;;;;;;;;;;;;;;;;5484742;26;19994;-57
2024/04/25 07:14:50;;;;;;;;;;;;;;;;;;5480232;26;20385;-57
2024/04/25 07:17:16;;;;;;;;;;;;;;;;;;5474349;26;19928;-55
2024/04/25 07:19:42;;;;;;;;;;;;;;;;;;5477134;26;19937;-58
2024/04/25 07:22:08;;;;;;;;;;;;;;;;;;5480464;26;20386;-58
2024/04/25 07:24:34;;;;;;;;;;;;;;;;;;5477915;26;19935;-59
2024/04/25 07:27:00;;;;;;;;;;;;;;;;;;5468284;26;19975;-56
2024/04/25 07:29:26;;;;;;;;;;;;;;;;;;5466422;26;19936;-56
2024/04/25 07:31:53;;;;;;;;;;;;;;;;;;5473690;26;19928;-58
2024/04/25 07:34:19;;;;;;;;;;;;;;;;;;5476384;26;19928;-58
2024/04/25 07:36:45;;;;;;;;;;;;;;;;;;5478904;26;20034;-58
2024/04/25 07:39:10;;;;;;;;;;;;;;;;;;5477795;26;19929;-59
2024/04/25 07:41:36;;;;;;;;;;;;;;;;;;5479388;26;19934;-59
2024/04/25 07:44:02;;;;;;;;;;;;;;;;;;5468796;26;19928;-56
2024/04/25 07:46:28;;;;;;;;;;;;;;;;;;5471678;26;19928;-56
2024/04/25 07:48:54;;;;;;;;;;;;;;;;;;5463742;26;20022;-56
2024/04/25 07:51:20;;;;;;;;;;;;;;;;;;5472598;26;19936;-58
2024/04/25 07:53:46;;;;;;;;;;;;;;;;;;5469369;26;19929;-58
2024/04/25 07:56:11;;;;;;;;;;;;;;;;;;5471716;26;19928;-56
2024/04/25 07:58:37;;;;;;;;;;;;;;;;;;5476487;26;19928;-58
2024/04/25 08:01:03;;;;;;;;;;;;;;;;;;5471487;26;19943;-58
2024/04/25 08:03:29;;;;;;;;;;;;;;;;;;5475220;26;19928;-56
2024/04/25 08:05:55;;;;;;;;;;;;;;;;;;5474382;26;20005;-56
2024/04/25 08:08:21;;;;;;;;;;;;;;;;;;5466672;26;19991;-58
2024/04/25 08:10:48;;;;;;;;;;;;;;;;;;5468755;26;19947;-58
2024/04/25 08:13:14;;;;;;;;;;;;;;;;;;5469971;26;19944;-59
2024/04/25 08:15:40;;;;;;;;;;;;;;;;;;5471929;26;20251;-59
2024/04/25 08:18:06;;;;;;;;;;;;;;;;;;5460425;26;19943;-60
2024/04/25 08:20:31;;;;;;;;;;;;;;;;;;5476747;26;19936;-59
2024/04/25 08:22:57;;;;;;;;;;;;;;;;;;5477289;26;19940;-58
2024/04/25 08:25:23;;;;;;;;;;;;;;;;;;5475596;26;20545;-58
2024/04/25 08:27:49;;;;;;;;;;;;;;;;;;5468804;26;19943;-59
2024/04/25 08:30:15;;;;;;;;;;;;;;;;;;5477436;26;19996;-58
2024/04/25 08:32:41;;;;;;;;;;;;;;;;;;5465661;26;20650;-56
2024/04/25 08:35:07;;;;;;;;;;;;;;;;;;5470040;26;19928;-57
2024/04/25 08:37:34;;;;;;;;;;;;;;;;;;5482664;26;19968;-56
2024/04/25 08:40:00;;;;;;;;;;;;;;;;;;5470862;26;19928;-58
2024/04/25 08:42:26;;;;;;;;;;;;;;;;;;5493974;26;20471;-59
2024/04/25 08:44:52;;;;;;;;;;;;;;;;;;5490854;26;19935;-59
2024/04/25 08:47:18;;;;;;;;;;;;;;;;;;5488721;26;19928;-59
2024/04/25 08:49:44;;;;;;;;;;;;;;;;;;5469646;26;19928;-58
2024/04/25 08:52:10;;;;;;;;;;;;;;;;;;5483585;26;20000;-58
2024/04/25 08:54:36;;;;;;;;;;;;;;;;;;5474926;26;20006;-59
2024/04/25 08:57:01;;;;;;;;;;;;;;;;;;5480411;26;19928;-59
2024/04/25 08:59:27;;;;;;;;;;;;;;;;;;5471927;26;20252;-56
2024/04/25 09:01:53;;;;;;;;;;;;;;;;;;5473825;26;19934;-57
2024/04/25 09:04:19;;;;;;;;;;;;;;;;;;5485992;26;19927;-59
2024/04/25 09:06:45;;;;;;;;;;;;;;;;;;5480658;26;19928;-58
2024/04/25 09:09:11;;;;;;;;;;;;;;;;;;5481961;26;19928;-58
2024/04/25 09:11:37;;;;;;;;;;;;;;;;;;5476890;26;19928;-59
2024/04/25 09:14:03;;;;;;;;;;;;;;;;;;5476269;26;19948;-59
2024/04/25 09:16:29;;;;;;;;;;;;;;;;;;5482285;26;19928;-60
2024/04/25 09:18:55;;;;;;;;;;;;;;;;;;5474226;26;19939;-58
2024/04/25 09:21:20;;;;;;;;;;;;;;;;;;5477793;26;20442;-59
2024/04/25 09:23:46;;;;;;;;;;;;;;;;;;5480162;26;19959;-59
2024/04/25 09:26:12;;;;;;;;;;;;;;;;;;5472432;26;19936;-60
2024/04/25 09:28:38;;;;;;;;;;;;;;;;;;5475039;26;19927;-58
2024/04/25 09:31:04;;;;;;;;;;;;;;;;;;5477316;26;19932;-59
2024/04/25 09:33:30;;;;;;;;;;;;;;;;;;5476309;26;19928;-60
2024/04/25 09:35:56;;;;;;;;;;;;;;;;;;5475728;26;19943;-56
2024/04/25 09:38:22;;;;;;;;;;;;;;;;;;5486313;26;19936;-59
2024/04/25 09:40:48;;;;;;;;;;;;;;;;;;5476825;26;20379;-57
2024/04/25 09:43:14;;;;;;;;;;;;;;;;;;5486225;26;19935;-59
2024/04/25 09:45:39;;;;;;;;;;;;;;;;;;5480938;26;20319;-55
2024/04/25 09:48:09;;;;;;;;;;;;;;;;;;5474784;26;19993;-57
2024/04/25 09:50:34;;;;;;;;;;;;;;;;;;5480137;26;20381;-58
2024/04/25 09:53:00;;;;;;;;;;;;;;;;;;5474978;26;19936;-57
2024/04/25 09:55:27;;;;;;;;;;;;;;;;;;5473775;26;20379;-56
2024/04/25 09:57:52;;;;;;;;;;;;;;;;;;5476369;26;19928;-60
2024/04/25 10:00:18;;;;;;;;;;;;;;;;;;5469374;26;19935;-60
2024/04/25 10:02:46;;;;;;;;;;;;;;;;;;5475617;26;19928;-58
2024/04/25 10:05:12;;;;;;;;;;;;;;;;;;5474920;26;19963;-57
2024/04/25 10:07:38;;;;;;;;;;;;;;;;;;5477583;26;20278;-59
2024/04/25 10:10:03;;;;;;;;;;;;;;;;;;5470226;26;19944;-59
2024/04/25 10:12:29;;;;;;;;;;;;;;;;;;5476443;26;19935;-59
2024/04/25 10:14:55;;;;;;;;;;;;;;;;;;5475421;26;20393;-59
2024/04/25 10:17:21;;;;;;;;;;;;;;;;;;5473244;26;19928;-59
2024/04/25 10:19:47;;;;;;;;;;;;;;;;;;5471124;26;19935;-58
2024/04/25 10:22:13;;;;;;;;;;;;;;;;;;5462221;26;20004;-59
2024/04/25 10:24:39;;;;;;;;;;;;;;;;;;5475054;26;19968;-60
2024/04/25 10:27:05;;;;;;;;;;;;;;;;;;5472168;26;19931;-60
2024/04/25 10:29:31;;;;;;;;;;;;;;;;;;5476766;26;19939;-59
2024/04/25 10:31:56;;;;;;;;;;;;;;;;;;5476709;26;19935;-57
2024/04/25 10:34:22;;;;;;;;;;;;;;;;;;5471583;26;19928;-60
2024/04/25 10:36:48;;;;;;;;;;;;;;;;;;5475660;26;19996;-60
2024/04/25 10:39:17;;;;;;;;;;;;;;;;;;5478627;26;19935;-59
2024/04/25 10:41:43;;;;;;;;;;;;;;;;;;5475847;26;19963;-60
2024/04/25 10:44:09;;;;;;;;;;;;;;;;;;5469280;26;21981;-59
2024/04/25 10:46:37;;;;;;;;;;;;;;;;;;5469717;26;19928;-60
2024/04/25 10:49:03;;;;;;;;;;;;;;;;;;5484712;26;19927;-60
2024/04/25 10:51:29;;;;;;;;;;;;;;;;;;5487259;26;19935;-58
2024/04/25 10:53:55;;;;;;;;;;;;;;;;;;5485508;26;20385;-59
2024/04/25 10:56:21;;;;;;;;;;;;;;;;;;5483702;26;19928;-59
2024/04/25 10:58:47;;;;;;;;;;;;;;;;;;5493513;26;20408;-59
2024/04/25 11:01:13;;;;;;;;;;;;;;;;;;5479474;26;19935;-60
2024/04/25 11:03:38;;;;;;;;;;;;;;;;;;5467826;26;19936;-57
2024/04/25 11:06:05;;;;;;;;;;;;;;;;;;5470198;26;20034;-60
2024/04/25 11:08:31;;;;;;;;;;;;;;;;;;5476088;26;19936;-59
2024/04/25 11:10:59;;;;;;;;;;;;;;;;;;5469887;26;20021;-58
2024/04/25 11:13:25;;;;;;;;;;;;;;;;;;5473254;26;19932;-59
2024/04/25 11:15:51;;;;;;;;;;;;;;;;;;5475933;26;19999;-59
2024/04/25 11:18:17;;;;;;;;;;;;;;;;;;5474472;26;19935;-58
2024/04/25 11:20:43;;;;;;;;;;;;;;;;;;5484321;26;19928;-60
2024/04/25 11:23:09;;;;;;;;;;;;;;;;;;5479889;26;20377;-60
2024/04/25 11:25:34;;;;;;;;;;;;;;;;;;5478585;26;19936;-59
2024/04/25 11:28:00;;;;;;;;;;;;;;;;;;5467605;26;20366;-59
2024/04/25 11:30:26;;;;;;;;;;;;;;;;;;5475178;26;19929;-60
2024/04/25 11:32:52;;;;;;;;;;;;;;;;;;5484376;26;19935;-58
2024/04/25 11:35:19;;;;;;;;;;;;;;;;;;5479744;26;19935;-60
2024/04/25 11:37:45;;;;;;;;;;;;;;;;;;5475604;26;20366;-59
2024/04/25 11:40:11;;;;;;;;;;;;;;;;;;5472749;26;19928;-60
2024/04/25 11:42:36;;;;;;;;;;;;;;;;;;5482590;26;20331;-59
2024/04/25 11:45:02;;;;;;;;;;;;;;;;;;5464720;26;19928;-59
2024/04/25 11:47:28;;;;;;;;;;;;;;;;;;5480707;26;19936;-60
2024/04/25 11:49:54;;;;;;;;;;;;;;;;;;5477414;26;19928;-60
2024/04/25 11:52:20;;;;;;;;;;;;;;;;;;5475556;26;20022;-60
2024/04/25 11:54:46;;;;;;;;;;;;;;;;;;5485783;26;19938;-60
2024/04/25 11:57:12;;;;;;;;;;;;;;;;;;5473910;26;19927;-60
2024/04/25 11:59:38;;;;;;;;;;;;;;;;;;5483865;26;19928;-60
2024/04/25 12:02:03;;;;;;;;;;;;;;;;;;5476492;26;20336;-59
2024/04/25 12:04:29;;;;;;;;;;;;;;;;;;5470021;26;19933;-60
2024/04/25 12:06:55;;;;;;;;;;;;;;;;;;5469752;26;20274;-60
2024/04/25 12:09:21;;;;;;;;;;;;;;;;;;5479546;26;19928;-57
2024/04/25 12:11:49;;;;;;;;;;;;;;;;;;5483390;26;19928;-57
2024/04/25 12:14:15;;;;;;;;;;;;;;;;;;5472447;26;19928;-60
2024/04/25 12:16:40;;;;;;;;;;;;;;;;;;5472731;26;19935;-59
2024/04/25 12:19:06;;;;;;;;;;;;;;;;;;5485929;26;19935;-59
2024/04/25 12:21:32;;;;;;;;;;;;;;;;;;5473890;26;20278;-59
2024/04/25 12:23:58;;;;;;;;;;;;;;;;;;5481576;26;20362;-60
2024/04/25 12:26:24;;;;;;;;;;;;;;;;;;5479550;26;19935;-58
2024/04/25 12:28:50;;;;;;;;;;;;;;;;;;5480808;26;19940;-57
2024/04/25 12:31:16;;;;;;;;;;;;;;;;;;5474112;26;20382;-58
2024/04/25 12:33:42;;;;;;;;;;;;;;;;;;5476231;26;19935;-59
2024/04/25 12:36:08;;;;;;;;;;;;;;;;;;5477020;26;20391;-57
2024/04/25 12:38:34;;;;;;;;;;;;;;;;;;5483687;26;19947;-60
2024/04/25 12:41:00;;;;;;;;;;;;;;;;;;5482603;26;20292;-60
2024/04/25 12:43:26;;;;;;;;;;;;;;;;;;5475437;26;20286;-58
2024/04/25 12:45:52;;;;;;;;;;;;;;;;;;5444584;26;20235;-59
2024/04/25 12:48:18;;;;;;;;;;;;;;;;;;5483251;26;19945;-57
2024/04/25 12:50:44;;;;;;;;;;;;;;;;;;5484101;26;20039;-56
2024/04/25 12:53:11;;;;;;;;;;;;;;;;;;5480555;26;19928;-59
2024/04/25 12:55:37;;;;;;;;;;;;;;;;;;5476087;26;19936;-59
2024/04/25 12:58:03;;;;;;;;;;;;;;;;;;5472448;26;19996;-60
2024/04/25 13:00:29;;;;;;;;;;;;;;;;;;5477503;26;19928;-59
2024/04/25 13:02:54;;;;;;;;;;;;;;;;;;5477732;26;19968;-56
2024/04/25 13:05:20;;;;;;;;;;;;;;;;;;5470836;26;19935;-59
2024/04/25 13:07:46;;;;;;;;;;;;;;;;;;5473157;26;20394;-59
2024/04/25 13:10:12;;;;;;;;;;;;;;;;;;5484832;26;19928;-60
2024/04/25 13:12:38;;;;;;;;;;;;;;;;;;5476503;26;20262;-59
2024/04/25 13:15:04;;;;;;;;;;;;;;;;;;5475260;26;20004;-59
2024/04/25 13:17:30;;;;;;;;;;;;;;;;;;5481972;26;19928;-59
2024/04/25 13:19:55;;;;;;;;;;;;;;;;;;5473511;26;20332;-58
2024/04/25 13:22:21;;;;;;;;;;;;;;;;;;5476608;26;19928;-59
2024/04/25 13:24:47;;;;;;;;;;;;;;;;;;5460900;26;20260;-59
2024/04/25 13:27:13;;;;;;;;;;;;;;;;;;5483140;26;19935;-59
2024/04/25 13:29:42;;;;;;;;;;;;;;;;;;5475247;26;19937;-59
2024/04/25 13:32:08;;;;;;;;;;;;;;;;;;5469918;26;20331;-57
2024/04/25 13:34:34;;;;;;;;;;;;;;;;;;5481003;26;19932;-57
2024/04/25 13:37:00;;;;;;;;;;;;;;;;;;5481437;26;20307;-60
2024/04/25 13:39:26;;;;;;;;;;;;;;;;;;5474347;26;19928;-56
2024/04/25 13:41:52;;;;;;;;;;;;;;;;;;5482319;26;20346;-59
2024/04/25 13:44:18;;;;;;;;;;;;;;;;;;5480343;26;20025;-60
2024/04/25 13:46:44;;;;;;;;;;;;;;;;;;5478859;26;19956;-59
2024/04/25 13:49:10;;;;;;;;;;;;;;;;;;5482621;26;19935;-58
2024/04/25 13:51:35;;;;;;;;;;;;;;;;;;5488314;26;19928;-57
2024/04/25 13:54:06;;;;;;;;;;;;;;;;;;5480971;26;19927;-57
2024/04/25 13:56:32;;;;;;;;;;;;;;;;;;5483326;26;20461;-60
2024/04/25 13:58:57;;;;;;;;;;;;;;;;;;5489277;26;19962;-60
2024/04/25 14:01:23;;;;;;;;;;;;;;;;;;5477884;26;20358;-58
2024/04/25 14:03:49;;;;;;;;;;;;;;;;;;5475376;26;19928;-59
2024/04/25 14:06:15;;;;;;;;;;;;;;;;;;5484779;26;20067;-58
2024/04/25 14:08:41;;;;;;;;;;;;;;;;;;5481093;26;19942;-58
2024/04/25 14:11:07;;;;;;;;;;;;;;;;;;5478052;26;19944;-58
2024/04/25 14:13:33;;;;;;;;;;;;;;;;;;5470767;26;20361;-56
2024/04/25 14:15:59;;;;;;;;;;;;;;;;;;5463420;26;19928;-59
2024/04/25 14:18:25;;;;;;;;;;;;;;;;;;5475141;26;20255;-57
2024/04/25 14:20:51;;;;;;;;;;;;;;;;;;5477599;26;19932;-57
2024/04/25 14:23:17;;;;;;;;;;;;;;;;;;5481266;26;19931;-59
2024/04/25 14:28:43;;;;;;;;;;;;;;;;;;5471334;26;19932;-57
2024/04/25 14:31:09;;;;;;;;;;;;;;;;;;5466000;26;20024;-58
2024/04/25 14:33:35;;;;;;;;;;;;;;;;;;5474753;26;19936;-56
2024/04/25 14:36:01;;;;;;;;;;;;;;;;;;5475240;26;20004;-59
2024/04/25 14:38:26;;;;;;;;;;;;;;;;;;5474577;26;19934;-57
2024/04/25 14:40:59;;;;;;;;;;;;;;;;;;5466413;26;19962;-59
2024/04/25 14:43:26;;;;;;;;;;;;;;;;;;5467957;26;19937;-59
2024/04/25 14:45:52;;;;;;;;;;;;;;;;;;5471391;26;20354;-58
2024/04/25 14:48:22;;;;;;;;;;;;;;;;;;5473314;26;19940;-58
2024/04/25 14:50:48;;;;;;;;;;;;;;;;;;5474513;26;19927;-59
2024/04/25 14:53:14;;;;;;;;;;;;;;;;;;5470630;26;19997;-55
2024/04/25 14:55:40;;;;;;;;;;;;;;;;;;5469889;26;20220;-56
2024/04/25 14:58:05;;;;;;;;;;;;;;;;;;5473774;26;19935;-60
2024/04/25 15:00:31;;;;;;;;;;;;;;;;;;5471036;26;19935;-59
2024/04/25 15:02:57;;;;;;;;;;;;;;;;;;5472735;26;19951;-64
2024/04/25 15:05:23;;;;;;;;;;;;;;;;;;5473796;26;19928;-64
2024/04/25 15:07:49;;;;;;;;;;;;;;;;;;5477810;26;19936;-63
2024/04/25 15:10:15;;;;;;;;;;;;;;;;;;5478730;26;19928;-63
2024/04/25 15:12:44;;;;;;;;;;;;;;;;;;5466552;26;20024;-64
2024/04/25 15:15:10;;;;;;;;;;;;;;;;;;5469661;26;20007;-63
2024/04/25 15:17:38;;;;;;;;;;;;;;;;;;5469179;26;19948;-64
2024/04/25 15:20:06;;;;;;;;;;;;;;;;;;5474984;26;20319;-63
2024/04/25 15:22:31;;;;;;;;;;;;;;;;;;5473412;26;19928;-63
2024/04/25 15:24:57;;;;;;;;;;;;;;;;;;5474895;26;19982;-63
2024/04/25 15:27:23;;;;;;;;;;;;;;;;;;5464463;26;20414;-63
2024/04/25 15:29:50;;;;;;;;;;;;;;;;;;5475349;26;19996;-64
2024/04/25 15:32:16;;;;;;;;;;;;;;;;;;5465505;26;19935;-64
2024/04/25 15:34:42;;;;;;;;;;;;;;;;;;5475966;26;19928;-63
2024/04/25 15:37:08;;;;;;;;;;;;;;;;;;5465354;26;20342;-63
2024/04/25 15:39:34;;;;;;;;;;;;;;;;;;5471031;26;19935;-63
2024/04/25 15:42:00;;;;;;;;;;;;;;;;;;5462558;26;19940;-63
2024/04/25 15:44:25;;;;;;;;;;;;;;;;;;5466575;26;20362;-64
2024/04/25 15:46:51;;;;;;;;;;;;;;;;;;5462681;26;19928;-64
2024/04/25 15:49:17;;;;;;;;;;;;;;;;;;5436402;26;20116;-63
2024/04/25 15:51:43;;;;;;;;;;;;;;;;;;5471508;26;19932;-65
2024/04/25 15:54:09;;;;;;;;;;;;;;;;;;5464011;26;19928;-63
2024/04/25 15:56:35;;;;;;;;;;;;;;;;;;5476746;26;19928;-64
2024/04/25 15:59:01;;;;;;;;;;;;;;;;;;5484282;26;19928;-64
2024/04/25 16:01:27;;;;;;;;;;;;;;;;;;5478093;26;20290;-64
2024/04/25 16:03:52;;;;;;;;;;;;;;;;;;5469490;26;19936;-64
2024/04/25 16:06:18;;;;;;;;;;;;;;;;;;5470642;26;19937;-63
2024/04/25 16:08:44;;;;;;;;;;;;;;;;;;5476371;26;19928;-64
2024/04/25 16:11:10;;;;;;;;;;;;;;;;;;5473257;26;19928;-64
2024/04/25 16:13:36;;;;;;;;;;;;;;;;;;5471368;26;19928;-65
2024/04/25 16:16:02;;;;;;;;;;;;;;;;;;5467836;26;19936;-64
2024/04/25 16:18:28;;;;;;;;;;;;;;;;;;5470974;26;19928;-64
2024/04/25 16:20:54;;;;;;;;;;;;;;;;;;5473927;26;19935;-64
2024/04/25 16:23:20;;;;;;;;;;;;;;;;;;5472196;26;19940;-64
2024/04/25 16:25:45;;;;;;;;;;;;;;;;;;5475109;26;19964;-63
2024/04/25 16:28:11;;;;;;;;;;;;;;;;;;5465033;26;20000;-62
2024/04/25 16:30:37;;;;;;;;;;;;;;;;;;5467632;26;20292;-63
2024/04/25 16:33:03;;;;;;;;;;;;;;;;;;5467883;26;20340;-64
2024/04/25 16:35:29;;;;;;;;;;;;;;;;;;5464288;26;20047;-63
2024/04/25 16:37:55;;;;;;;;;;;;;;;;;;5460843;26;19939;-64
2024/04/25 16:40:21;;;;;;;;;;;;;;;;;;5463590;26;20367;-61
2024/04/25 16:42:47;;;;;;;;;;;;;;;;;;5459721;26;19936;-63
2024/04/25 16:45:14;;;;;;;;;;;;;;;;;;5468101;26;19928;-63